Time;durP1;ratioP1;P1;durP2;ratioP2;P2;SDS_P1;SDS_P2;PMS_P1;PMS_P2;Temp;Humidity;BMP_temperature;BMP_pressure;BME280_temperature;BME280_humidity;BME280_pressure;Samples;Min_cycle;Max_cycle;Signal;HPM_P1;HPM_P2
2024/04/24 00:00:26;;;;;;;20.7;13.3;;;;;;;;;;;;;
2024/04/24 00:02:51;;;;;;;20.4;13.9;;;;;;;;;;;;;
2024/04/24 00:05:17;;;;;;;18.2;13;;;;;;;;;;;;;
2024/04/24 00:07:41;;;;;;;18.2;12.5;;;;;;;;;;;;;
2024/04/24 00:10:06;;;;;;;20.7;13.6;;;;;;;;;;;;;
2024/04/24 00:12:31;;;;;;;20.9;14.2;;;;;;;;;;;;;
2024/04/24 00:14:57;;;;;;;20.8;13.9;;;;;;;;;;;;;
2024/04/24 00:17:22;;;;;;;20.3;13.9;;;;;;;;;;;;;
2024/04/24 00:19:47;;;;;;;23.4;15.2;;;;;;;;;;;;;
2024/04/24 00:22:12;;;;;;;22.7;14.6;;;;;;;;;;;;;
2024/04/24 00:24:37;;;;;;;21.7;14;;;;;;;;;;;;;
2024/04/24 00:27:02;;;;;;;20.7;14.4;;;;;;;;;;;;;
2024/04/24 00:29:28;;;;;;;21.8;14.7;;;;;;;;;;;;;
2024/04/24 00:31:53;;;;;;;21.1;14.2;;;;;;;;;;;;;
2024/04/24 00:34:18;;;;;;;19.6;13.4;;;;;;;;;;;;;
2024/04/24 00:36:43;;;;;;;21.8;14.4;;;;;;;;;;;;;
2024/04/24 00:39:08;;;;;;;22.2;14.8;;;;;;;;;;;;;
2024/04/24 00:41:33;;;;;;;22.5;14.8;;;;;;;;;;;;;
2024/04/24 00:43:58;;;;;;;22.6;14.6;;;;;;;;;;;;;
2024/04/24 00:46:24;;;;;;;22.9;15.1;;;;;;;;;;;;;
2024/04/24 00:48:49;;;;;;;18;13.1;;;;;;;;;;;;;
2024/04/24 00:51:14;;;;;;;20.3;13.3;;;;;;;;;;;;;
2024/04/24 00:53:39;;;;;;;19.8;13.5;;;;;;;;;;;;;
2024/04/24 00:56:04;;;;;;;20.2;13.9;;;;;;;;;;;;;
2024/04/24 00:58:29;;;;;;;19.9;12.9;;;;;;;;;;;;;
2024/04/24 01:00:54;;;;;;;20.5;14.1;;;;;;;;;;;;;
2024/04/24 01:03:19;;;;;;;21.7;14.7;;;;;;;;;;;;;
2024/04/24 01:05:44;;;;;;;18.1;12.9;;;;;;;;;;;;;
2024/04/24 01:08:10;;;;;;;18.9;11.8;;;;;;;;;;;;;
2024/04/24 01:10:35;;;;;;;15.5;11.2;;;;;;;;;;;;;
2024/04/24 01:13:00;;;;;;;18.6;11.8;;;;;;;;;;;;;
2024/04/24 01:15:25;;;;;;;18.5;12.1;;;;;;;;;;;;;
2024/04/24 01:17:50;;;;;;;19;12.2;;;;;;;;;;;;;
2024/04/24 01:20:15;;;;;;;19;12.5;;;;;;;;;;;;;
2024/04/24 01:22:40;;;;;;;19.2;13.2;;;;;;;;;;;;;
2024/04/24 01:25:05;;;;;;;21.3;13.7;;;;;;;;;;;;;
2024/04/24 01:27:30;;;;;;;19.3;13;;;;;;;;;;;;;
2024/04/24 01:29:56;;;;;;;20.7;13.7;;;;;;;;;;;;;
2024/04/24 01:32:21;;;;;;;20.3;13.4;;;;;;;;;;;;;
2024/04/24 01:34:46;;;;;;;20.2;13.5;;;;;;;;;;;;;
2024/04/24 01:37:11;;;;;;;19.2;12.8;;;;;;;;;;;;;
2024/04/24 01:39:36;;;;;;;20.3;13.8;;;;;;;;;;;;;
2024/04/24 01:42:01;;;;;;;20.6;13.8;;;;;;;;;;;;;
2024/04/24 01:44:26;;;;;;;17.8;12.1;;;;;;;;;;;;;
2024/04/24 01:46:52;;;;;;;18.9;12.4;;;;;;;;;;;;;
2024/04/24 01:49:17;;;;;;;19.6;12.4;;;;;;;;;;;;;
2024/04/24 01:51:42;;;;;;;17.6;12.1;;;;;;;;;;;;;
2024/04/24 01:54:07;;;;;;;17.7;12.8;;;;;;;;;;;;;
2024/04/24 01:56:32;;;;;;;19.8;13.1;;;;;;;;;;;;;
2024/04/24 01:58:57;;;;;;;19.9;12.7;;;;;;;;;;;;;
2024/04/24 02:01:22;;;;;;;17.7;12;;;;;;;;;;;;;
2024/04/24 02:03:47;;;;;;;17.3;12.1;;;;;;;;;;;;;
2024/04/24 02:06:12;;;;;;;18;12.3;;;;;;;;;;;;;
2024/04/24 02:08:38;;;;;;;18.4;11.7;;;;;;;;;;;;;
2024/04/24 02:11:03;;;;;;;19.5;12.8;;;;;;;;;;;;;
2024/04/24 02:13:29;;;;;;;19.1;12.7;;;;;;;;;;;;;
2024/04/24 02:15:54;;;;;;;18.1;12.2;;;;;;;;;;;;;
2024/04/24 02:18:19;;;;;;;18.6;12.3;;;;;;;;;;;;;
2024/04/24 02:20:44;;;;;;;14.4;10.3;;;;;;;;;;;;;
2024/04/24 02:23:12;;;;;;;14.7;9.8;;;;;;;;;;;;;
2024/04/24 02:25:37;;;;;;;13.9;10.4;;;;;;;;;;;;;
2024/04/24 02:27:59;;;;;;;14.7;10.3;;;;;;;;;;;;;
2024/04/24 02:30:24;;;;;;;13.9;9.9;;;;;;;;;;;;;
2024/04/24 02:32:49;;;;;;;13.9;9.5;;;;;;;;;;;;;
2024/04/24 02:35:14;;;;;;;14.7;10.3;;;;;;;;;;;;;
2024/04/24 02:37:40;;;;;;;14.2;9.8;;;;;;;;;;;;;
2024/04/24 02:40:05;;;;;;;15.6;10.8;;;;;;;;;;;;;
2024/04/24 02:42:30;;;;;;;14.5;10.1;;;;;;;;;;;;;
2024/04/24 02:44:55;;;;;;;16.8;10.9;;;;;;;;;;;;;
2024/04/24 02:47:20;;;;;;;19.2;11.5;;;;;;;;;;;;;
2024/04/24 02:49:45;;;;;;;16.7;11;;;;;;;;;;;;;
2024/04/24 02:52:10;;;;;;;17;11.5;;;;;;;;;;;;;
2024/04/24 02:54:35;;;;;;;16.2;11.2;;;;;;;;;;;;;
2024/04/24 02:57:01;;;;;;;17.6;12.2;;;;;;;;;;;;;
2024/04/24 02:59:25;;;;;;;18.6;12.2;;;;;;;;;;;;;
2024/04/24 03:01:51;;;;;;;30.4;16.1;;;;;;;;;;;;;
2024/04/24 03:04:16;;;;;;;22;13;;;;;;;;;;;;;
2024/04/24 03:06:41;;;;;;;20.9;13.5;;;;;;;;;;;;;
2024/04/24 03:09:06;;;;;;;18;12.5;;;;;;;;;;;;;
2024/04/24 03:11:31;;;;;;;20.2;12.9;;;;;;;;;;;;;
2024/04/24 03:13:56;;;;;;;18.5;12.6;;;;;;;;;;;;;
2024/04/24 03:16:21;;;;;;;19.5;12.8;;;;;;;;;;;;;
2024/04/24 03:18:47;;;;;;;19.4;11.8;;;;;;;;;;;;;
2024/04/24 03:21:12;;;;;;;17.6;11.3;;;;;;;;;;;;;
2024/04/24 03:23:38;;;;;;;17.6;12;;;;;;;;;;;;;
2024/04/24 03:26:02;;;;;;;17.5;12.2;;;;;;;;;;;;;
2024/04/24 03:28:27;;;;;;;17.7;12;;;;;;;;;;;;;
2024/04/24 03:30:52;;;;;;;17.9;12.2;;;;;;;;;;;;;
2024/04/24 03:33:17;;;;;;;16.8;11.2;;;;;;;;;;;;;
2024/04/24 03:35:42;;;;;;;15.3;10.7;;;;;;;;;;;;;
2024/04/24 03:38:08;;;;;;;15.3;10.3;;;;;;;;;;;;;
2024/04/24 03:40:33;;;;;;;16.6;10.9;;;;;;;;;;;;;
2024/04/24 03:42:58;;;;;;;14;10.2;;;;;;;;;;;;;
2024/04/24 03:45:23;;;;;;;15.9;10.6;;;;;;;;;;;;;
2024/04/24 03:47:48;;;;;;;13.5;9.5;;;;;;;;;;;;;
2024/04/24 03:50:13;;;;;;;14.2;10.4;;;;;;;;;;;;;
2024/04/24 03:52:39;;;;;;;13.2;10.2;;;;;;;;;;;;;
2024/04/24 03:55:03;;;;;;;13.6;9.4;;;;;;;;;;;;;
2024/04/24 03:57:28;;;;;;;13.2;9.3;;;;;;;;;;;;;
2024/04/24 03:59:54;;;;;;;13;9.2;;;;;;;;;;;;;
2024/04/24 04:02:29;;;;;;;12.7;9;;;;;;;;;;;;;
2024/04/24 04:04:54;;;;;;;13.4;9.1;;;;;;;;;;;;;
2024/04/24 04:07:19;;;;;;;13.5;9.7;;;;;;;;;;;;;
2024/04/24 04:09:44;;;;;;;14;10.3;;;;;;;;;;;;;
2024/04/24 04:12:09;;;;;;;16.1;11;;;;;;;;;;;;;
2024/04/24 04:14:34;;;;;;;17.2;10.7;;;;;;;;;;;;;
2024/04/24 04:16:59;;;;;;;16.8;11.4;;;;;;;;;;;;;
2024/04/24 04:19:24;;;;;;;15;10.2;;;;;;;;;;;;;
2024/04/24 04:21:51;;;;;;;15;10;;;;;;;;;;;;;
2024/04/24 04:24:14;;;;;;;14.7;10.4;;;;;;;;;;;;;
2024/04/24 04:26:40;;;;;;;14.8;10.4;;;;;;;;;;;;;
2024/04/24 04:29:04;;;;;;;14.4;9.9;;;;;;;;;;;;;
2024/04/24 04:31:30;;;;;;;13.4;9.6;;;;;;;;;;;;;
2024/04/24 04:33:55;;;;;;;12.5;9;;;;;;;;;;;;;
2024/04/24 04:36:20;;;;;;;12.2;8.3;;;;;;;;;;;;;
2024/04/24 04:38:45;;;;;;;12.9;8.6;;;;;;;;;;;;;
2024/04/24 04:41:10;;;;;;;13.5;8.9;;;;;;;;;;;;;
2024/04/24 04:43:35;;;;;;;11.5;8.2;;;;;;;;;;;;;
2024/04/24 04:46:00;;;;;;;12.1;8.5;;;;;;;;;;;;;
2024/04/24 04:48:25;;;;;;;13.7;9.5;;;;;;;;;;;;;
2024/04/24 04:50:50;;;;;;;13.2;9.4;;;;;;;;;;;;;
2024/04/24 04:53:15;;;;;;;11.6;8;;;;;;;;;;;;;
2024/04/24 04:55:41;;;;;;;12.7;8.3;;;;;;;;;;;;;
2024/04/24 04:58:06;;;;;;;10.7;7.3;;;;;;;;;;;;;
2024/04/24 05:00:31;;;;;;;12.3;8.6;;;;;;;;;;;;;
2024/04/24 05:02:56;;;;;;;12.6;8;;;;;;;;;;;;;
2024/04/24 05:05:22;;;;;;;10.8;7.7;;;;;;;;;;;;;
2024/04/24 05:07:47;;;;;;;12.2;8;;;;;;;;;;;;;
2024/04/24 05:10:11;;;;;;;11.3;8;;;;;;;;;;;;;
2024/04/24 05:12:37;;;;;;;11.4;7.3;;;;;;;;;;;;;
2024/04/24 05:15:02;;;;;;;10.7;7.8;;;;;;;;;;;;;
2024/04/24 05:17:27;;;;;;;9.5;7.1;;;;;;;;;;;;;
2024/04/24 05:19:52;;;;;;;10.7;7.3;;;;;;;;;;;;;
2024/04/24 05:22:17;;;;;;;12.4;9.2;;;;;;;;;;;;;
2024/04/24 05:24:42;;;;;;;13.1;8.9;;;;;;;;;;;;;
2024/04/24 05:29:33;;;;;;;30.4;15.9;;;;;;;;;;;;;
2024/04/24 05:31:58;;;;;;;13.7;9.4;;;;;;;;;;;;;
2024/04/24 05:34:23;;;;;;;14;9.2;;;;;;;;;;;;;
2024/04/24 05:36:48;;;;;;;8.9;6.3;;;;;;;;;;;;;
2024/04/24 05:39:15;;;;;;;8.4;6.1;;;;;;;;;;;;;
2024/04/24 05:41:38;;;;;;;7.6;6;;;;;;;;;;;;;
2024/04/24 05:44:04;;;;;;;8.3;6.1;;;;;;;;;;;;;
2024/04/24 05:46:29;;;;;;;9.1;6.4;;;;;;;;;;;;;
2024/04/24 05:48:54;;;;;;;13.5;8.8;;;;;;;;;;;;;
2024/04/24 05:51:20;;;;;;;12.9;8.6;;;;;;;;;;;;;
2024/04/24 05:53:44;;;;;;;12.9;9.2;;;;;;;;;;;;;
2024/04/24 05:56:09;;;;;;;17.9;11.3;;;;;;;;;;;;;
2024/04/24 05:58:34;;;;;;;22.7;14.8;;;;;;;;;;;;;
2024/04/24 06:00:59;;;;;;;18.9;12.3;;;;;;;;;;;;;
2024/04/24 06:03:24;;;;;;;15.2;11;;;;;;;;;;;;;
2024/04/24 06:05:49;;;;;;;15.7;11;;;;;;;;;;;;;
2024/04/24 06:08:14;;;;;;;17.4;11.5;;;;;;;;;;;;;
2024/04/24 06:10:39;;;;;;;16;11.1;;;;;;;;;;;;;
2024/04/24 06:13:05;;;;;;;13.4;9.8;;;;;;;;;;;;;
2024/04/24 06:15:30;;;;;;;12.8;9.2;;;;;;;;;;;;;
2024/04/24 06:17:55;;;;;;;12.2;9.2;;;;;;;;;;;;;
2024/04/24 06:20:21;;;;;;;13.3;9.1;;;;;;;;;;;;;
2024/04/24 06:22:45;;;;;;;9.5;7.4;;;;;;;;;;;;;
2024/04/24 06:25:10;;;;;;;11;7.4;;;;;;;;;;;;;
2024/04/24 06:27:36;;;;;;;10;7.4;;;;;;;;;;;;;
2024/04/24 06:30:00;;;;;;;9.7;7.4;;;;;;;;;;;;;
2024/04/24 06:32:25;;;;;;;11.6;8.5;;;;;;;;;;;;;
2024/04/24 06:34:51;;;;;;;13.2;8.4;;;;;;;;;;;;;
2024/04/24 06:37:16;;;;;;;10.8;7.7;;;;;;;;;;;;;
2024/04/24 06:39:41;;;;;;;11.7;9;;;;;;;;;;;;;
2024/04/24 06:42:08;;;;;;;11.5;7.9;;;;;;;;;;;;;
2024/04/24 06:44:31;;;;;;;9.6;7.1;;;;;;;;;;;;;
2024/04/24 06:46:56;;;;;;;11;7.2;;;;;;;;;;;;;
2024/04/24 06:49:21;;;;;;;9;6.9;;;;;;;;;;;;;
2024/04/24 06:51:46;;;;;;;9.9;7.5;;;;;;;;;;;;;
2024/04/24 06:54:12;;;;;;;9.6;7.2;;;;;;;;;;;;;
2024/04/24 06:56:37;;;;;;;11.2;7.6;;;;;;;;;;;;;
2024/04/24 06:59:02;;;;;;;14.3;9.9;;;;;;;;;;;;;
2024/04/24 07:01:27;;;;;;;12.8;9.2;;;;;;;;;;;;;
2024/04/24 07:03:52;;;;;;;12.9;9.7;;;;;;;;;;;;;
2024/04/24 07:06:18;;;;;;;14;8.8;;;;;;;;;;;;;
2024/04/24 07:08:42;;;;;;;12.5;8.6;;;;;;;;;;;;;
2024/04/24 07:11:07;;;;;;;8.2;6.2;;;;;;;;;;;;;
2024/04/24 07:13:33;;;;;;;10.6;7.8;;;;;;;;;;;;;
2024/04/24 07:15:58;;;;;;;16.2;10.2;;;;;;;;;;;;;
2024/04/24 07:18:23;;;;;;;8.4;5.8;;;;;;;;;;;;;
2024/04/24 07:20:48;;;;;;;6.2;5.2;;;;;;;;;;;;;
2024/04/24 07:23:15;;;;;;;6.8;5.4;;;;;;;;;;;;;
2024/04/24 07:25:38;;;;;;;7.9;5.7;;;;;;;;;;;;;
2024/04/24 07:28:03;;;;;;;7.2;6;;;;;;;;;;;;;
2024/04/24 07:30:28;;;;;;;7.6;6.1;;;;;;;;;;;;;
2024/04/24 07:32:53;;;;;;;8.1;5.8;;;;;;;;;;;;;
2024/04/24 07:35:18;;;;;;;7.2;5.7;;;;;;;;;;;;;
2024/04/24 07:37:44;;;;;;;7.6;6.6;;;;;;;;;;;;;
2024/04/24 07:40:10;;;;;;;8.3;6.1;;;;;;;;;;;;;
2024/04/24 07:42:34;;;;;;;6.6;5.6;;;;;;;;;;;;;
2024/04/24 07:44:59;;;;;;;7.4;5.8;;;;;;;;;;;;;
2024/04/24 07:47:25;;;;;;;6.2;5.3;;;;;;;;;;;;;
2024/04/24 07:49:50;;;;;;;7.5;5.6;;;;;;;;;;;;;
2024/04/24 07:52:15;;;;;;;7.2;5.3;;;;;;;;;;;;;
2024/04/24 07:54:41;;;;;;;8.4;6.5;;;;;;;;;;;;;
2024/04/24 07:57:05;;;;;;;7.9;5.7;;;;;;;;;;;;;
2024/04/24 07:59:30;;;;;;;7.8;6;;;;;;;;;;;;;
2024/04/24 08:01:57;;;;;;;7.2;6;;;;;;;;;;;;;
2024/04/24 08:04:20;;;;;;;9.4;7.1;;;;;;;;;;;;;
2024/04/24 08:06:45;;;;;;;11.2;7.8;;;;;;;;;;;;;
2024/04/24 08:09:11;;;;;;;10.7;8.1;;;;;;;;;;;;;
2024/04/24 08:11:35;;;;;;;10.8;8.6;;;;;;;;;;;;;
2024/04/24 08:14:02;;;;;;;10.4;8.4;;;;;;;;;;;;;
2024/04/24 08:16:26;;;;;;;9.2;7.4;;;;;;;;;;;;;
2024/04/24 08:18:51;;;;;;;8;6.3;;;;;;;;;;;;;
2024/04/24 08:21:16;;;;;;;8.3;6.5;;;;;;;;;;;;;
2024/04/24 08:23:41;;;;;;;8.3;6.7;;;;;;;;;;;;;
2024/04/24 08:26:07;;;;;;;8.6;7;;;;;;;;;;;;;
2024/04/24 08:28:32;;;;;;;9.8;8.1;;;;;;;;;;;;;
2024/04/24 08:30:56;;;;;;;10;7.9;;;;;;;;;;;;;
2024/04/24 08:33:22;;;;;;;10.7;8.1;;;;;;;;;;;;;
2024/04/24 08:35:47;;;;;;;9.7;7.1;;;;;;;;;;;;;
2024/04/24 08:38:12;;;;;;;11;7.8;;;;;;;;;;;;;
2024/04/24 08:40:37;;;;;;;9.7;7.3;;;;;;;;;;;;;
2024/04/24 08:43:02;;;;;;;8.8;7.5;;;;;;;;;;;;;
2024/04/24 08:45:27;;;;;;;11;8.2;;;;;;;;;;;;;
2024/04/24 08:47:52;;;;;;;11.6;8.5;;;;;;;;;;;;;
2024/04/24 08:50:17;;;;;;;10.2;7.8;;;;;;;;;;;;;
2024/04/24 08:52:43;;;;;;;8.8;6.9;;;;;;;;;;;;;
2024/04/24 08:55:08;;;;;;;9.1;7.5;;;;;;;;;;;;;
2024/04/24 08:57:33;;;;;;;11.2;8.1;;;;;;;;;;;;;
2024/04/24 08:59:59;;;;;;;10.4;8.1;;;;;;;;;;;;;
2024/04/24 09:02:26;;;;;;;10.5;8.3;;;;;;;;;;;;;
2024/04/24 09:04:48;;;;;;;11.1;8.1;;;;;;;;;;;;;
2024/04/24 09:07:13;;;;;;;10.1;8.2;;;;;;;;;;;;;
2024/04/24 09:09:38;;;;;;;9.2;7.7;;;;;;;;;;;;;
2024/04/24 09:12:03;;;;;;;9.2;7.7;;;;;;;;;;;;;
2024/04/24 09:14:29;;;;;;;8.8;7;;;;;;;;;;;;;
2024/04/24 09:16:53;;;;;;;9.3;7.3;;;;;;;;;;;;;
2024/04/24 09:19:19;;;;;;;9.6;7;;;;;;;;;;;;;
2024/04/24 09:21:44;;;;;;;9.9;7.3;;;;;;;;;;;;;
2024/04/24 09:24:09;;;;;;;9.8;7.4;;;;;;;;;;;;;
2024/04/24 09:26:34;;;;;;;9.1;7;;;;;;;;;;;;;
2024/04/24 09:28:59;;;;;;;8.9;6.8;;;;;;;;;;;;;
2024/04/24 09:31:24;;;;;;;7.3;5.9;;;;;;;;;;;;;
2024/04/24 09:33:49;;;;;;;8.1;6.4;;;;;;;;;;;;;
2024/04/24 09:36:14;;;;;;;6.2;5.5;;;;;;;;;;;;;
2024/04/24 09:38:39;;;;;;;5.9;5;;;;;;;;;;;;;
2024/04/24 09:41:05;;;;;;;6.5;5.8;;;;;;;;;;;;;
2024/04/24 09:43:29;;;;;;;6.1;5.3;;;;;;;;;;;;;
2024/04/24 09:45:55;;;;;;;6.1;5.3;;;;;;;;;;;;;
2024/04/24 09:48:20;;;;;;;5.3;4.5;;;;;;;;;;;;;
2024/04/24 09:50:45;;;;;;;5.9;4.6;;;;;;;;;;;;;
2024/04/24 09:53:10;;;;;;;5.5;4.8;;;;;;;;;;;;;
2024/04/24 09:55:36;;;;;;;4.8;4.3;;;;;;;;;;;;;
2024/04/24 09:58:00;;;;;;;5.9;4.7;;;;;;;;;;;;;
2024/04/24 10:00:25;;;;;;;5.9;4.8;;;;;;;;;;;;;
2024/04/24 10:02:50;;;;;;;6.1;4.7;;;;;;;;;;;;;
2024/04/24 10:05:16;;;;;;;6.6;4.7;;;;;;;;;;;;;
2024/04/24 10:07:40;;;;;;;5.7;4.5;;;;;;;;;;;;;
2024/04/24 10:10:06;;;;;;;4.6;4;;;;;;;;;;;;;
2024/04/24 10:12:31;;;;;;;5.1;4.3;;;;;;;;;;;;;
2024/04/24 10:14:56;;;;;;;5.3;4.2;;;;;;;;;;;;;
2024/04/24 10:17:22;;;;;;;7;4.5;;;;;;;;;;;;;
2024/04/24 10:19:46;;;;;;;4.6;3.9;;;;;;;;;;;;;
2024/04/24 10:22:11;;;;;;;4.8;4.2;;;;;;;;;;;;;
2024/04/24 10:24:36;;;;;;;4.8;4.3;;;;;;;;;;;;;
2024/04/24 10:27:02;;;;;;;4.7;4;;;;;;;;;;;;;
2024/04/24 10:29:27;;;;;;;5.1;4.3;;;;;;;;;;;;;
2024/04/24 10:31:52;;;;;;;5.8;4.1;;;;;;;;;;;;;
2024/04/24 10:34:17;;;;;;;5.1;4.2;;;;;;;;;;;;;
2024/04/24 10:36:42;;;;;;;6.5;4.5;;;;;;;;;;;;;
2024/04/24 10:39:07;;;;;;;6.5;5.2;;;;;;;;;;;;;
2024/04/24 10:41:32;;;;;;;7;5.1;;;;;;;;;;;;;
2024/04/24 10:43:59;;;;;;;7.3;5.2;;;;;;;;;;;;;
2024/04/24 10:46:23;;;;;;;6.5;4.7;;;;;;;;;;;;;
2024/04/24 10:48:48;;;;;;;5.2;4.4;;;;;;;;;;;;;
2024/04/24 10:51:13;;;;;;;6.7;3.9;;;;;;;;;;;;;
2024/04/24 10:53:39;;;;;;;4.6;3.5;;;;;;;;;;;;;
2024/04/24 10:56:04;;;;;;;5.5;3.8;;;;;;;;;;;;;
2024/04/24 10:58:29;;;;;;;4.8;3.9;;;;;;;;;;;;;
2024/04/24 11:00:54;;;;;;;4;3.5;;;;;;;;;;;;;
2024/04/24 11:03:22;;;;;;;6.5;3.8;;;;;;;;;;;;;
2024/04/24 11:05:45;;;;;;;3.9;3.5;;;;;;;;;;;;;
2024/04/24 11:08:10;;;;;;;4.4;3.4;;;;;;;;;;;;;
2024/04/24 11:10:35;;;;;;;5.2;3.8;;;;;;;;;;;;;
2024/04/24 11:13:02;;;;;;;4.6;3.3;;;;;;;;;;;;;
2024/04/24 11:15:25;;;;;;;4.2;3.1;;;;;;;;;;;;;
2024/04/24 11:17:50;;;;;;;3.5;3.2;;;;;;;;;;;;;
2024/04/24 11:20:15;;;;;;;3.9;3.1;;;;;;;;;;;;;
2024/04/24 11:22:40;;;;;;;4;3;;;;;;;;;;;;;
2024/04/24 11:25:06;;;;;;;3.7;3.4;;;;;;;;;;;;;
2024/04/24 11:27:30;;;;;;;3.2;2.9;;;;;;;;;;;;;
2024/04/24 11:29:56;;;;;;;3.9;3.2;;;;;;;;;;;;;
2024/04/24 11:32:21;;;;;;;4.4;3.4;;;;;;;;;;;;;
2024/04/24 11:34:46;;;;;;;5.3;3.8;;;;;;;;;;;;;
2024/04/24 11:37:11;;;;;;;4.3;3.8;;;;;;;;;;;;;
2024/04/24 11:39:36;;;;;;;4.8;3.7;;;;;;;;;;;;;
2024/04/24 11:42:01;;;;;;;4.3;3.7;;;;;;;;;;;;;
2024/04/24 11:44:28;;;;;;;3.8;3.3;;;;;;;;;;;;;
2024/04/24 11:46:51;;;;;;;3.9;3.1;;;;;;;;;;;;;
2024/04/24 11:49:17;;;;;;;3.3;2.8;;;;;;;;;;;;;
2024/04/24 11:51:42;;;;;;;4.5;3.1;;;;;;;;;;;;;
2024/04/24 11:54:07;;;;;;;4;3;;;;;;;;;;;;;
2024/04/24 11:56:32;;;;;;;4.2;3.2;;;;;;;;;;;;;
2024/04/24 11:58:57;;;;;;;3.4;3.1;;;;;;;;;;;;;
2024/04/24 12:01:22;;;;;;;3.7;3.1;;;;;;;;;;;;;
2024/04/24 12:03:47;;;;;;;3.9;3.4;;;;;;;;;;;;;
2024/04/24 12:06:13;;;;;;;3.8;3;;;;;;;;;;;;;
2024/04/24 12:08:37;;;;;;;3.5;3.1;;;;;;;;;;;;;
2024/04/24 12:11:03;;;;;;;3.4;3.1;;;;;;;;;;;;;
2024/04/24 12:13:28;;;;;;;3.6;2.7;;;;;;;;;;;;;
2024/04/24 12:15:53;;;;;;;3;2.4;;;;;;;;;;;;;
2024/04/24 12:18:18;;;;;;;3.1;2.6;;;;;;;;;;;;;
2024/04/24 12:20:43;;;;;;;3.2;2.5;;;;;;;;;;;;;
2024/04/24 12:23:08;;;;;;;4.8;2.9;;;;;;;;;;;;;
2024/04/24 12:25:33;;;;;;;2.5;2.3;;;;;;;;;;;;;
2024/04/24 12:27:58;;;;;;;3.5;2.7;;;;;;;;;;;;;
2024/04/24 12:30:23;;;;;;;3.8;2.8;;;;;;;;;;;;;
2024/04/24 12:32:48;;;;;;;3.1;2.8;;;;;;;;;;;;;
2024/04/24 12:35:13;;;;;;;3.3;3;;;;;;;;;;;;;
2024/04/24 12:37:39;;;;;;;3.2;2.4;;;;;;;;;;;;;
2024/04/24 12:40:04;;;;;;;4.5;3.6;;;;;;;;;;;;;
2024/04/24 12:42:29;;;;;;;4;3;;;;;;;;;;;;;
2024/04/24 12:44:54;;;;;;;2.6;1.9;;;;;;;;;;;;;
2024/04/24 12:47:19;;;;;;;2.5;2.1;;;;;;;;;;;;;
2024/04/24 12:49:44;;;;;;;3.8;2.9;;;;;;;;;;;;;
2024/04/24 12:52:09;;;;;;;2.6;2.4;;;;;;;;;;;;;
2024/04/24 12:54:35;;;;;;;2.2;1.9;;;;;;;;;;;;;
2024/04/24 12:56:59;;;;;;;5.3;4;;;;;;;;;;;;;
2024/04/24 12:59:25;;;;;;;4.5;3.1;;;;;;;;;;;;;
2024/04/24 13:01:50;;;;;;;5.1;3.6;;;;;;;;;;;;;
2024/04/24 13:04:15;;;;;;;3.4;2.8;;;;;;;;;;;;;
2024/04/24 13:06:40;;;;;;;3.2;2.3;;;;;;;;;;;;;
2024/04/24 13:09:05;;;;;;;2.4;2.2;;;;;;;;;;;;;
2024/04/24 13:11:30;;;;;;;3.2;2.4;;;;;;;;;;;;;
2024/04/24 13:13:55;;;;;;;2.6;2.1;;;;;;;;;;;;;
2024/04/24 13:16:20;;;;;;;2.5;2.1;;;;;;;;;;;;;
2024/04/24 13:18:46;;;;;;;2.7;2.2;;;;;;;;;;;;;
2024/04/24 13:21:11;;;;;;;3.7;2.4;;;;;;;;;;;;;
2024/04/24 13:23:36;;;;;;;3.5;2.6;;;;;;;;;;;;;
2024/04/24 13:26:01;;;;;;;3.7;2.2;;;;;;;;;;;;;
2024/04/24 13:28:27;;;;;;;2.6;2.4;;;;;;;;;;;;;
2024/04/24 13:30:52;;;;;;;3.2;2.6;;;;;;;;;;;;;
2024/04/24 13:33:16;;;;;;;2.4;2.2;;;;;;;;;;;;;
2024/04/24 13:35:42;;;;;;;2.3;2.1;;;;;;;;;;;;;
2024/04/24 13:38:07;;;;;;;2.2;2;;;;;;;;;;;;;
2024/04/24 13:40:32;;;;;;;2.5;2.3;;;;;;;;;;;;;
2024/04/24 13:42:57;;;;;;;2.5;2.3;;;;;;;;;;;;;
2024/04/24 13:45:22;;;;;;;2.3;2.1;;;;;;;;;;;;;
2024/04/24 13:47:47;;;;;;;2.7;1.8;;;;;;;;;;;;;
2024/04/24 13:50:13;;;;;;;2.6;2;;;;;;;;;;;;;
2024/04/24 13:52:37;;;;;;;2.1;1.9;;;;;;;;;;;;;
2024/04/24 13:55:02;;;;;;;2;1.8;;;;;;;;;;;;;
2024/04/24 13:57:28;;;;;;;2.3;2.1;;;;;;;;;;;;;
2024/04/24 13:59:52;;;;;;;2;1.8;;;;;;;;;;;;;
2024/04/24 14:02:18;;;;;;;2;1.7;;;;;;;;;;;;;
2024/04/24 14:04:43;;;;;;;2.5;1.8;;;;;;;;;;;;;
2024/04/24 14:07:08;;;;;;;2;1.6;;;;;;;;;;;;;
2024/04/24 14:09:33;;;;;;;2.4;1.9;;;;;;;;;;;;;
2024/04/24 14:11:58;;;;;;;2;1.8;;;;;;;;;;;;;
2024/04/24 14:14:24;;;;;;;3;1.5;;;;;;;;;;;;;
2024/04/24 14:16:48;;;;;;;1.8;1.7;;;;;;;;;;;;;
2024/04/24 14:19:13;;;;;;;2;1.6;;;;;;;;;;;;;
2024/04/24 14:21:39;;;;;;;2.8;1.7;;;;;;;;;;;;;
2024/04/24 14:24:04;;;;;;;1.8;1.5;;;;;;;;;;;;;
2024/04/24 14:26:29;;;;;;;2;1.6;;;;;;;;;;;;;
2024/04/24 14:28:54;;;;;;;1.6;1.5;;;;;;;;;;;;;
2024/04/24 14:31:19;;;;;;;2.8;2;;;;;;;;;;;;;
2024/04/24 14:33:48;;;;;;;1.8;1.7;;;;;;;;;;;;;
2024/04/24 14:36:09;;;;;;;1.8;1.7;;;;;;;;;;;;;
2024/04/24 14:38:34;;;;;;;1.6;1.5;;;;;;;;;;;;;
2024/04/24 14:41:00;;;;;;;1.5;1.4;;;;;;;;;;;;;
2024/04/24 14:43:25;;;;;;;1.5;1.4;;;;;;;;;;;;;
2024/04/24 14:45:50;;;;;;;1.7;1.6;;;;;;;;;;;;;
2024/04/24 14:48:15;;;;;;;3;1.8;;;;;;;;;;;;;
2024/04/24 14:50:40;;;;;;;2.6;1.6;;;;;;;;;;;;;
2024/04/24 14:53:05;;;;;;;1.8;1.6;;;;;;;;;;;;;
2024/04/24 14:55:31;;;;;;;2.7;1.6;;;;;;;;;;;;;
2024/04/24 14:57:55;;;;;;;3.5;2.5;;;;;;;;;;;;;
2024/04/24 15:00:20;;;;;;;1.9;1.7;;;;;;;;;;;;;
2024/04/24 15:02:45;;;;;;;1.9;1.8;;;;;;;;;;;;;
2024/04/24 15:05:10;;;;;;;3.4;2.4;;;;;;;;;;;;;
2024/04/24 15:07:36;;;;;;;4.3;3.2;;;;;;;;;;;;;
2024/04/24 15:10:01;;;;;;;3.7;2.2;;;;;;;;;;;;;
2024/04/24 15:12:26;;;;;;;3.1;2.1;;;;;;;;;;;;;
2024/04/24 15:14:51;;;;;;;2.6;2;;;;;;;;;;;;;
2024/04/24 15:17:16;;;;;;;3.2;2.2;;;;;;;;;;;;;
2024/04/24 15:19:41;;;;;;;3.3;2.3;;;;;;;;;;;;;
2024/04/24 15:22:06;;;;;;;2.1;1.6;;;;;;;;;;;;;
2024/04/24 15:24:32;;;;;;;2.5;2;;;;;;;;;;;;;
2024/04/24 15:26:56;;;;;;;1.9;1.7;;;;;;;;;;;;;
2024/04/24 15:29:21;;;;;;;1.9;1.8;;;;;;;;;;;;;
2024/04/24 15:31:46;;;;;;;2.3;2.1;;;;;;;;;;;;;
2024/04/24 15:34:13;;;;;;;4.4;2;;;;;;;;;;;;;
2024/04/24 15:36:37;;;;;;;2.2;2;;;;;;;;;;;;;
2024/04/24 15:39:03;;;;;;;3.4;2.2;;;;;;;;;;;;;
2024/04/24 15:41:27;;;;;;;1.7;1.6;;;;;;;;;;;;;
2024/04/24 15:43:52;;;;;;;2;1.8;;;;;;;;;;;;;
2024/04/24 15:46:17;;;;;;;1.6;1.5;;;;;;;;;;;;;
2024/04/24 15:48:42;;;;;;;1.4;1.3;;;;;;;;;;;;;
2024/04/24 15:51:07;;;;;;;1.7;1.5;;;;;;;;;;;;;
2024/04/24 15:53:32;;;;;;;2.2;1.4;;;;;;;;;;;;;
2024/04/24 15:55:59;;;;;;;2.4;1.9;;;;;;;;;;;;;
2024/04/24 15:58:23;;;;;;;1.7;1.6;;;;;;;;;;;;;
2024/04/24 16:00:48;;;;;;;1.9;1.6;;;;;;;;;;;;;
2024/04/24 16:03:13;;;;;;;2.5;1.9;;;;;;;;;;;;;
2024/04/24 16:05:38;;;;;;;1.9;1.8;;;;;;;;;;;;;
2024/04/24 16:08:03;;;;;;;3.2;2;;;;;;;;;;;;;
2024/04/24 16:10:29;;;;;;;2.3;2.1;;;;;;;;;;;;;
2024/04/24 16:12:53;;;;;;;2.2;1.9;;;;;;;;;;;;;
2024/04/24 16:15:19;;;;;;;2.8;2.1;;;;;;;;;;;;;
2024/04/24 16:17:44;;;;;;;2.2;2;;;;;;;;;;;;;
2024/04/24 16:20:12;;;;;;;2.4;1.8;;;;;;;;;;;;;
2024/04/24 16:22:34;;;;;;;2.6;2.4;;;;;;;;;;;;;
2024/04/24 16:24:59;;;;;;;3.6;2.4;;;;;;;;;;;;;
2024/04/24 16:27:24;;;;;;;2.5;2.3;;;;;;;;;;;;;
2024/04/24 16:29:50;;;;;;;2.1;1.9;;;;;;;;;;;;;
2024/04/24 16:32:14;;;;;;;2.7;2;;;;;;;;;;;;;
2024/04/24 16:34:44;;;;;;;2.6;2.2;;;;;;;;;;;;;
2024/04/24 16:37:05;;;;;;;2.5;2.2;;;;;;;;;;;;;
2024/04/24 16:39:30;;;;;;;4;2;;;;;;;;;;;;;
2024/04/24 16:41:55;;;;;;;2.8;2.2;;;;;;;;;;;;;
2024/04/24 16:44:20;;;;;;;2.6;2.1;;;;;;;;;;;;;
2024/04/24 16:46:45;;;;;;;3.2;2.3;;;;;;;;;;;;;
2024/04/24 16:49:10;;;;;;;2.2;2;;;;;;;;;;;;;
2024/04/24 16:51:35;;;;;;;2.5;2.3;;;;;;;;;;;;;
2024/04/24 16:54:00;;;;;;;3;2.2;;;;;;;;;;;;;
2024/04/24 16:56:26;;;;;;;2.7;2.2;;;;;;;;;;;;;
2024/04/24 16:58:50;;;;;;;2.8;2.3;;;;;;;;;;;;;
2024/04/24 17:01:17;;;;;;;3;2.4;;;;;;;;;;;;;
2024/04/24 17:03:41;;;;;;;2.3;2.1;;;;;;;;;;;;;
2024/04/24 17:06:06;;;;;;;3.2;2.6;;;;;;;;;;;;;
2024/04/24 17:08:32;;;;;;;4.2;2.5;;;;;;;;;;;;;
2024/04/24 17:10:56;;;;;;;3.1;2.6;;;;;;;;;;;;;
2024/04/24 17:13:21;;;;;;;3.2;2.5;;;;;;;;;;;;;
2024/04/24 17:15:46;;;;;;;5.1;3.7;;;;;;;;;;;;;
2024/04/24 17:18:12;;;;;;;4.1;3.1;;;;;;;;;;;;;
2024/04/24 17:20:37;;;;;;;2.8;2.5;;;;;;;;;;;;;
2024/04/24 17:23:02;;;;;;;2.7;2.2;;;;;;;;;;;;;
2024/04/24 17:25:27;;;;;;;2.4;2.2;;;;;;;;;;;;;
2024/04/24 17:27:52;;;;;;;4.2;1.9;;;;;;;;;;;;;
2024/04/24 17:30:17;;;;;;;2.6;1.9;;;;;;;;;;;;;
2024/04/24 17:32:43;;;;;;;1.7;1.6;;;;;;;;;;;;;
2024/04/24 17:35:07;;;;;;;1.8;1.6;;;;;;;;;;;;;
2024/04/24 17:37:33;;;;;;;1.9;1.7;;;;;;;;;;;;;
2024/04/24 17:39:57;;;;;;;3.3;2.4;;;;;;;;;;;;;
2024/04/24 17:42:22;;;;;;;4.3;3.3;;;;;;;;;;;;;
2024/04/24 17:44:52;;;;;;;3;2.1;;;;;;;;;;;;;
2024/04/24 17:47:13;;;;;;;3.8;2.4;;;;;;;;;;;;;
2024/04/24 17:49:38;;;;;;;2.5;1.8;;;;;;;;;;;;;
2024/04/24 17:52:03;;;;;;;3.7;2.9;;;;;;;;;;;;;
2024/04/24 17:54:28;;;;;;;3.8;2.4;;;;;;;;;;;;;
2024/04/24 17:56:53;;;;;;;1.8;1.7;;;;;;;;;;;;;
2024/04/24 17:59:19;;;;;;;4.1;2.7;;;;;;;;;;;;;
2024/04/24 18:01:43;;;;;;;2.3;2;;;;;;;;;;;;;
2024/04/24 18:04:09;;;;;;;2;1.6;;;;;;;;;;;;;
2024/04/24 18:06:34;;;;;;;9.9;7.7;;;;;;;;;;;;;
2024/04/24 18:08:59;;;;;;;3.6;2.9;;;;;;;;;;;;;
2024/04/24 18:11:24;;;;;;;2.4;2.2;;;;;;;;;;;;;
2024/04/24 18:13:49;;;;;;;3.4;2.1;;;;;;;;;;;;;
2024/04/24 18:16:14;;;;;;;2.8;2.6;;;;;;;;;;;;;
2024/04/24 18:18:40;;;;;;;5.2;4.5;;;;;;;;;;;;;
2024/04/24 18:21:04;;;;;;;3.2;2.7;;;;;;;;;;;;;
2024/04/24 18:23:29;;;;;;;5;3.9;;;;;;;;;;;;;
2024/04/24 18:25:55;;;;;;;3;2.7;;;;;;;;;;;;;
2024/04/24 18:28:20;;;;;;;3.9;3.5;;;;;;;;;;;;;
2024/04/24 18:30:45;;;;;;;6.2;4.9;;;;;;;;;;;;;
2024/04/24 18:33:10;;;;;;;5.7;5.1;;;;;;;;;;;;;
2024/04/24 18:35:35;;;;;;;22.3;13.3;;;;;;;;;;;;;
2024/04/24 18:38:01;;;;;;;12.4;8.1;;;;;;;;;;;;;
2024/04/24 18:40:27;;;;;;;6.4;4.9;;;;;;;;;;;;;
2024/04/24 18:42:51;;;;;;;4.9;3.6;;;;;;;;;;;;;
2024/04/24 18:45:16;;;;;;;5.2;3.9;;;;;;;;;;;;;
2024/04/24 18:47:41;;;;;;;74.6;35.8;;;;;;;;;;;;;
2024/04/24 18:50:08;;;;;;;7.5;5.9;;;;;;;;;;;;;
2024/04/24 18:52:33;;;;;;;8.6;6.4;;;;;;;;;;;;;
2024/04/24 18:54:56;;;;;;;7.6;5.7;;;;;;;;;;;;;
2024/04/24 18:57:22;;;;;;;3.9;3.5;;;;;;;;;;;;;
2024/04/24 18:59:47;;;;;;;3.9;2.9;;;;;;;;;;;;;
2024/04/24 19:02:12;;;;;;;3.3;2.8;;;;;;;;;;;;;
2024/04/24 19:04:37;;;;;;;4.1;3;;;;;;;;;;;;;
2024/04/24 19:07:02;;;;;;;4.5;3;;;;;;;;;;;;;
2024/04/24 19:09:27;;;;;;;3.4;3.1;;;;;;;;;;;;;
2024/04/24 19:11:52;;;;;;;5.3;3.8;;;;;;;;;;;;;
2024/04/24 19:14:17;;;;;;;4;3.4;;;;;;;;;;;;;
2024/04/24 19:16:43;;;;;;;3.7;3;;;;;;;;;;;;;
2024/04/24 19:19:08;;;;;;;4.1;2.9;;;;;;;;;;;;;
2024/04/24 19:21:33;;;;;;;3.7;3;;;;;;;;;;;;;
2024/04/24 19:23:58;;;;;;;3.4;3;;;;;;;;;;;;;
2024/04/24 19:26:23;;;;;;;3.9;3.4;;;;;;;;;;;;;
2024/04/24 19:28:48;;;;;;;3.4;3.1;;;;;;;;;;;;;
2024/04/24 19:31:14;;;;;;;3.9;3.4;;;;;;;;;;;;;
2024/04/24 19:33:38;;;;;;;3.8;3.4;;;;;;;;;;;;;
2024/04/24 19:36:03;;;;;;;4.1;3.3;;;;;;;;;;;;;
2024/04/24 19:38:28;;;;;;;2.8;2.5;;;;;;;;;;;;;
2024/04/24 19:40:53;;;;;;;2.4;2.2;;;;;;;;;;;;;
2024/04/24 19:43:19;;;;;;;2.5;2.2;;;;;;;;;;;;;
2024/04/24 19:45:44;;;;;;;3;2.3;;;;;;;;;;;;;
2024/04/24 19:48:09;;;;;;;2.8;2.6;;;;;;;;;;;;;
2024/04/24 19:50:34;;;;;;;3.4;3.1;;;;;;;;;;;;;
2024/04/24 19:53:00;;;;;;;7.7;5;;;;;;;;;;;;;
2024/04/24 19:55:24;;;;;;;3.2;2.9;;;;;;;;;;;;;
2024/04/24 19:57:49;;;;;;;3.5;2.8;;;;;;;;;;;;;
2024/04/24 20:00:14;;;;;;;4.3;3.3;;;;;;;;;;;;;
2024/04/24 20:02:40;;;;;;;3.7;3.3;;;;;;;;;;;;;
2024/04/24 20:05:05;;;;;;;4.3;3.5;;;;;;;;;;;;;
2024/04/24 20:07:31;;;;;;;4.6;3.5;;;;;;;;;;;;;
2024/04/24 20:09:55;;;;;;;4.1;3.7;;;;;;;;;;;;;
2024/04/24 20:12:20;;;;;;;3.7;3.4;;;;;;;;;;;;;
2024/04/24 20:14:45;;;;;;;3.5;3.2;;;;;;;;;;;;;
2024/04/24 20:17:10;;;;;;;2.9;2.6;;;;;;;;;;;;;
2024/04/24 20:19:35;;;;;;;3.1;2.5;;;;;;;;;;;;;